createdAt,value
2023-01-26T00:00:26.482Z,999.77
2023-01-26T00:01:26.470Z,999.69
2023-01-26T00:02:26.482Z,999.75
2023-01-26T00:03:26.511Z,999.71
2023-01-26T00:04:26.473Z,999.72
2023-01-26T00:05:26.444Z,999.68
2023-01-26T00:06:26.433Z,999.69
2023-01-26T00:07:26.425Z,999.72
2023-01-26T00:08:26.421Z,999.73
2023-01-26T00:09:26.441Z,999.77
2023-01-26T00:10:26.405Z,999.83
2023-01-26T00:11:26.401Z,999.77
2023-01-26T00:12:26.393Z,999.73
2023-01-26T00:13:26.392Z,999.79
2023-01-26T00:14:26.400Z,999.73
2023-01-26T00:15:26.384Z,999.73
2023-01-26T00:16:26.482Z,999.69
2023-01-26T00:17:26.456Z,999.77
2023-01-26T00:18:26.352Z,999.76
2023-01-26T00:19:26.365Z,999.77
2023-01-26T00:20:27.334Z,999.69
2023-01-26T00:21:26.321Z,999.63
2023-01-26T00:22:26.319Z,999.70
2023-01-26T00:23:26.310Z,999.78
2023-01-26T00:24:26.330Z,999.69
2023-01-26T00:25:26.293Z,999.74
2023-01-26T00:26:26.285Z,999.77
2023-01-26T00:27:26.286Z,999.81
2023-01-26T00:28:26.277Z,999.73
2023-01-26T00:29:26.292Z,999.81
2023-01-26T00:30:26.287Z,999.82
2023-01-26T00:31:26.305Z,999.82
2023-01-26T00:32:26.240Z,999.74
2023-01-26T00:33:26.234Z,999.80
2023-01-26T00:34:26.248Z,999.77
2023-01-26T00:35:26.225Z,999.76
2023-01-26T00:36:26.223Z,999.75
2023-01-26T00:37:26.208Z,999.74
2023-01-26T00:38:26.206Z,999.69
2023-01-26T00:39:26.219Z,999.67
2023-01-26T00:40:26.187Z,999.69
2023-01-26T00:41:26.174Z,999.65
2023-01-26T00:42:26.173Z,999.63
2023-01-26T00:43:26.163Z,999.59
2023-01-26T00:44:26.199Z,999.60
2023-01-26T00:45:26.143Z,999.51
2023-01-26T00:46:26.184Z,999.54
2023-01-26T00:47:26.133Z,999.59
2023-01-26T00:48:26.126Z,999.43
2023-01-26T00:49:26.143Z,999.46
2023-01-26T00:50:26.109Z,999.46
2023-01-26T00:51:26.099Z,999.41
2023-01-26T00:52:26.091Z,999.53
2023-01-26T00:53:26.095Z,999.53
2023-01-26T00:54:26.114Z,999.57
2023-01-26T00:55:26.076Z,999.46
2023-01-26T00:56:26.068Z,999.48
2023-01-26T00:57:26.063Z,999.44
2023-01-26T00:58:26.054Z,999.55
2023-01-26T00:59:26.088Z,999.50
2023-01-26T01:00:26.052Z,999.55
2023-01-26T01:01:26.028Z,999.51
2023-01-26T01:02:26.026Z,999.43
2023-01-26T01:03:26.021Z,999.49
2023-01-26T01:04:26.008Z,999.47
2023-01-26T01:05:26.037Z,999.50
2023-01-26T01:06:26.091Z,999.47
2023-01-26T01:07:25.992Z,999.47
2023-01-26T01:08:25.975Z,999.42
2023-01-26T01:09:25.968Z,999.44
2023-01-26T01:10:25.985Z,999.48
2023-01-26T01:11:25.955Z,999.55
2023-01-26T01:12:25.945Z,999.49
2023-01-26T01:13:25.935Z,999.51
2023-01-26T01:14:25.938Z,999.50
2023-01-26T01:15:25.952Z,999.54
2023-01-26T01:16:25.965Z,999.52
2023-01-26T01:17:25.912Z,999.53
2023-01-26T01:18:25.911Z,999.57
2023-01-26T01:19:25.910Z,999.54
2023-01-26T01:20:25.916Z,999.47
2023-01-26T01:21:25.884Z,999.46
2023-01-26T01:22:25.875Z,999.41
2023-01-26T01:23:25.868Z,999.43
2023-01-26T01:24:25.867Z,999.40
2023-01-26T01:25:25.888Z,999.38
2023-01-26T01:26:25.847Z,999.39
2023-01-26T01:27:25.842Z,999.36
2023-01-26T01:28:25.826Z,999.39
2023-01-26T01:29:25.823Z,999.37
2023-01-26T01:30:25.841Z,999.45
2023-01-26T01:31:25.890Z,999.45
2023-01-26T01:32:25.802Z,999.40
2023-01-26T01:33:25.800Z,999.40
2023-01-26T01:34:25.785Z,999.42
2023-01-26T01:35:25.804Z,999.38
2023-01-26T01:36:25.772Z,999.38
2023-01-26T01:37:25.759Z,999.44
2023-01-26T01:38:25.755Z,999.41
2023-01-26T01:39:25.748Z,999.37
2023-01-26T01:40:25.770Z,999.42
2023-01-26T01:41:25.735Z,999.35
2023-01-26T01:42:25.728Z,999.40
2023-01-26T01:43:25.738Z,999.41
2023-01-26T01:44:25.713Z,999.40
2023-01-26T01:45:25.804Z,999.42
2023-01-26T01:46:25.775Z,999.42
2023-01-26T01:47:25.691Z,999.41
2023-01-26T01:48:25.689Z,999.37
2023-01-26T01:49:25.687Z,999.34
2023-01-26T01:50:25.692Z,999.38
2023-01-26T01:51:25.664Z,999.38
2023-01-26T01:52:25.644Z,999.34
2023-01-26T01:53:25.653Z,999.29
2023-01-26T01:54:25.647Z,999.34
2023-01-26T01:55:25.716Z,999.32
2023-01-26T01:56:25.622Z,999.33
2023-01-26T01:57:25.617Z,999.32
2023-01-26T01:58:25.608Z,999.26
2023-01-26T01:59:25.601Z,999.30
2023-01-26T02:00:25.619Z,999.30
2023-01-26T02:01:25.616Z,999.30
2023-01-26T02:02:25.577Z,999.36
2023-01-26T02:03:25.569Z,999.29
2023-01-26T02:04:25.576Z,999.32
2023-01-26T02:05:25.610Z,999.31
2023-01-26T02:06:25.554Z,999.27
2023-01-26T02:07:25.543Z,999.28
2023-01-26T02:08:25.541Z,999.23
2023-01-26T02:09:25.530Z,999.18
2023-01-26T02:10:25.556Z,999.21
2023-01-26T02:11:25.543Z,999.17
2023-01-26T02:12:25.527Z,999.17
2023-01-26T02:13:25.563Z,999.18
2023-01-26T02:14:25.533Z,999.08
2023-01-26T02:15:25.520Z,999.09
2023-01-26T02:16:25.542Z,999.09
2023-01-26T02:17:25.467Z,999.10
2023-01-26T02:18:25.498Z,999.04
2023-01-26T02:19:25.461Z,999.07
2023-01-26T02:20:25.473Z,999.10
2023-01-26T02:21:25.441Z,998.99
2023-01-26T02:22:25.431Z,998.97
2023-01-26T02:23:25.424Z,998.93
2023-01-26T02:24:25.480Z,998.94
2023-01-26T02:25:25.438Z,998.92
2023-01-26T02:26:25.407Z,998.88
2023-01-26T02:27:25.398Z,998.90
2023-01-26T02:28:25.405Z,998.91
2023-01-26T02:29:25.383Z,998.98
2023-01-26T02:30:25.403Z,998.93
2023-01-26T02:31:25.417Z,998.88
2023-01-26T02:32:25.353Z,998.90
2023-01-26T02:33:25.352Z,998.84
2023-01-26T02:34:25.345Z,998.78
2023-01-26T02:35:25.358Z,998.75
2023-01-26T02:36:25.329Z,998.78
2023-01-26T02:37:25.329Z,998.72
2023-01-26T02:38:25.315Z,998.76
2023-01-26T02:39:26.312Z,998.78
2023-01-26T02:40:25.331Z,998.75
2023-01-26T02:41:25.293Z,998.70
2023-01-26T02:42:25.287Z,998.85
2023-01-26T02:43:25.278Z,998.74
2023-01-26T02:44:25.289Z,998.79
2023-01-26T02:45:25.299Z,998.74
2023-01-26T02:46:25.272Z,998.75
2023-01-26T02:47:25.250Z,998.73
2023-01-26T02:48:25.241Z,998.72
2023-01-26T02:49:25.251Z,998.76
2023-01-26T02:50:25.243Z,998.67
2023-01-26T02:51:25.229Z,998.69
2023-01-26T02:52:25.219Z,998.76
2023-01-26T02:53:25.207Z,998.75
2023-01-26T02:54:25.190Z,998.80
2023-01-26T02:55:25.286Z,998.75
2023-01-26T02:56:25.174Z,998.73
2023-01-26T02:57:25.177Z,998.72
2023-01-26T02:58:25.162Z,998.71
2023-01-26T02:59:25.151Z,998.65
2023-01-26T03:00:25.173Z,998.61
2023-01-26T03:01:25.146Z,998.61
2023-01-26T03:02:25.197Z,998.60
2023-01-26T03:03:25.131Z,998.64
2023-01-26T03:04:25.118Z,998.60
2023-01-26T03:05:25.141Z,998.57
2023-01-26T03:06:25.108Z,998.57
2023-01-26T03:07:25.097Z,998.51
2023-01-26T03:08:25.091Z,998.55
2023-01-26T03:09:25.087Z,998.54
2023-01-26T03:10:25.105Z,998.53
2023-01-26T03:11:25.069Z,998.55
2023-01-26T03:12:25.062Z,998.48
2023-01-26T03:13:25.054Z,998.47
2023-01-26T03:14:25.044Z,998.48
2023-01-26T03:15:25.071Z,998.40
2023-01-26T03:16:25.178Z,998.43
2023-01-26T03:17:25.025Z,998.40
2023-01-26T03:18:25.013Z,998.42
2023-01-26T03:19:25.009Z,998.47
2023-01-26T03:20:24.999Z,998.47
2023-01-26T03:21:25.034Z,998.46
2023-01-26T03:22:24.985Z,998.50
2023-01-26T03:23:24.981Z,998.45
2023-01-26T03:24:24.991Z,998.45
2023-01-26T03:25:24.965Z,998.38
2023-01-26T03:26:24.985Z,998.45
2023-01-26T03:27:24.941Z,998.34
2023-01-26T03:28:25.937Z,998.40
2023-01-26T03:29:24.937Z,998.37
2023-01-26T03:30:24.954Z,998.39
2023-01-26T03:31:24.965Z,998.36
2023-01-26T03:32:24.910Z,998.28
2023-01-26T03:33:24.912Z,998.27
2023-01-26T03:34:24.901Z,998.28
2023-01-26T03:35:24.888Z,998.33
2023-01-26T03:36:24.911Z,998.29
2023-01-26T03:37:24.886Z,998.27
2023-01-26T03:38:24.870Z,998.34
2023-01-26T03:39:24.854Z,998.33
2023-01-26T03:40:24.853Z,998.24
2023-01-26T03:41:24.871Z,998.26
2023-01-26T03:42:24.843Z,998.21
2023-01-26T03:43:24.831Z,998.26
2023-01-26T03:44:24.818Z,998.28
2023-01-26T03:45:24.817Z,998.28
2023-01-26T03:46:24.832Z,998.29
2023-01-26T03:47:24.807Z,998.32
2023-01-26T03:48:24.794Z,998.31
2023-01-26T03:49:24.782Z,998.27
2023-01-26T03:50:24.780Z,998.31
2023-01-26T03:51:24.793Z,998.24
2023-01-26T03:52:24.766Z,998.26
2023-01-26T03:53:24.750Z,998.22
2023-01-26T03:54:24.744Z,998.18
2023-01-26T03:55:24.741Z,998.13
2023-01-26T03:56:24.758Z,998.20
2023-01-26T03:57:24.727Z,998.23
2023-01-26T03:58:24.724Z,998.22
2023-01-26T03:59:24.713Z,998.25
2023-01-26T04:00:24.703Z,998.24
2023-01-26T04:01:24.724Z,998.25
2023-01-26T04:02:24.831Z,998.21
2023-01-26T04:03:24.686Z,998.18
2023-01-26T04:04:24.676Z,998.17
2023-01-26T04:05:24.676Z,998.20
2023-01-26T04:06:24.703Z,998.23
2023-01-26T04:07:24.663Z,998.22
2023-01-26T04:08:24.686Z,998.23
2023-01-26T04:09:24.638Z,998.24
2023-01-26T04:10:24.634Z,998.21
2023-01-26T04:11:24.666Z,998.21
2023-01-26T04:12:24.618Z,998.16
2023-01-26T04:13:24.614Z,998.17
2023-01-26T04:14:24.604Z,998.21
2023-01-26T04:15:24.598Z,998.27
2023-01-26T04:16:24.615Z,998.20
2023-01-26T04:17:24.613Z,998.24
2023-01-26T04:18:24.575Z,998.24
2023-01-26T04:19:24.570Z,998.19
2023-01-26T04:20:24.612Z,998.28
2023-01-26T04:21:24.555Z,998.21
2023-01-26T04:22:24.574Z,998.27
2023-01-26T04:23:24.601Z,998.17
2023-01-26T04:24:24.759Z,998.19
2023-01-26T04:25:24.522Z,998.18
2023-01-26T04:26:24.513Z,998.15
2023-01-26T04:27:24.533Z,998.21
2023-01-26T04:28:24.500Z,998.19
2023-01-26T04:29:24.490Z,998.14
2023-01-26T04:30:24.520Z,998.17
2023-01-26T04:31:24.481Z,998.16
2023-01-26T04:32:24.501Z,998.23
2023-01-26T04:33:24.464Z,998.09
2023-01-26T04:34:24.462Z,998.13
2023-01-26T04:35:24.448Z,998.15
2023-01-26T04:36:24.441Z,998.07
2023-01-26T04:37:24.457Z,998.09
2023-01-26T04:38:24.424Z,998.12
2023-01-26T04:39:24.423Z,998.04
2023-01-26T04:40:24.405Z,998.05
2023-01-26T04:41:24.403Z,998.11
2023-01-26T04:42:24.416Z,998.04
2023-01-26T04:43:24.386Z,998.04
2023-01-26T04:44:24.381Z,998.05
2023-01-26T04:45:24.377Z,998.04
2023-01-26T04:46:24.363Z,998.00
2023-01-26T04:47:24.379Z,997.95
2023-01-26T04:48:24.345Z,998.01
2023-01-26T04:49:24.336Z,998.06
2023-01-26T04:50:24.333Z,997.97
2023-01-26T04:51:24.323Z,998.07
2023-01-26T04:52:24.342Z,998.03
2023-01-26T04:53:24.314Z,998.01
2023-01-26T04:54:24.293Z,997.94
2023-01-26T04:55:24.296Z,997.98
2023-01-26T04:56:24.286Z,997.98
2023-01-26T04:57:24.302Z,997.97
2023-01-26T04:58:24.273Z,997.96
2023-01-26T04:59:24.267Z,997.93
2023-01-26T05:00:24.261Z,997.92
2023-01-26T05:01:24.294Z,997.91
2023-01-26T05:02:24.276Z,997.95
2023-01-26T05:03:24.240Z,997.97
2023-01-26T05:04:24.284Z,997.97
2023-01-26T05:05:24.220Z,997.95
2023-01-26T05:06:24.225Z,998.01
2023-01-26T05:07:24.242Z,997.94
2023-01-26T05:08:24.207Z,997.97
2023-01-26T05:09:24.203Z,997.97
2023-01-26T05:10:24.191Z,997.95
2023-01-26T05:11:24.189Z,997.96
2023-01-26T05:12:24.208Z,997.98
2023-01-26T05:13:24.169Z,998.03
2023-01-26T05:14:24.159Z,997.98
2023-01-26T05:15:24.145Z,997.96
2023-01-26T05:16:24.161Z,998.00
2023-01-26T05:17:24.157Z,998.01
2023-01-26T05:18:24.124Z,998.02
2023-01-26T05:19:24.121Z,998.01
2023-01-26T05:20:24.115Z,998.10
2023-01-26T05:21:24.118Z,998.03
2023-01-26T05:22:24.134Z,998.05
2023-01-26T05:23:24.090Z,998.04
2023-01-26T05:24:24.102Z,998.05
2023-01-26T05:25:24.080Z,997.99
2023-01-26T05:26:24.077Z,998.04
2023-01-26T05:27:24.097Z,998.05
2023-01-26T05:28:24.052Z,998.03
2023-01-26T05:29:24.044Z,998.06
2023-01-26T05:30:24.039Z,998.12
2023-01-26T05:31:24.070Z,998.11
2023-01-26T05:32:24.069Z,998.08
2023-01-26T05:33:24.019Z,998.14
2023-01-26T05:34:24.002Z,998.13
2023-01-26T05:35:25.001Z,998.13
2023-01-26T05:36:24.026Z,998.16
2023-01-26T05:37:24.014Z,998.17
2023-01-26T05:38:23.992Z,998.14
2023-01-26T05:39:23.978Z,998.15
2023-01-26T05:40:23.963Z,998.14
2023-01-26T05:41:23.961Z,998.13
2023-01-26T05:42:23.984Z,998.18
2023-01-26T05:43:23.948Z,998.14
2023-01-26T05:44:23.933Z,998.13
2023-01-26T05:45:23.934Z,998.25
2023-01-26T05:46:23.918Z,998.25
2023-01-26T05:47:23.946Z,998.24
2023-01-26T05:48:23.903Z,998.31
2023-01-26T05:49:23.901Z,998.30
2023-01-26T05:50:23.886Z,998.22
2023-01-26T05:51:23.879Z,998.28
2023-01-26T05:52:23.903Z,998.28
2023-01-26T05:53:23.916Z,998.20
2023-01-26T05:54:23.867Z,998.23
2023-01-26T05:55:23.856Z,998.28
2023-01-26T05:56:23.848Z,998.30
2023-01-26T05:57:23.881Z,998.28
2023-01-26T05:58:23.840Z,998.25
2023-01-26T05:59:23.829Z,998.29
2023-01-26T06:00:23.822Z,998.27
2023-01-26T06:01:23.816Z,998.33
2023-01-26T06:02:23.900Z,998.29
2023-01-26T06:03:23.800Z,998.22
2023-01-26T06:04:23.874Z,998.26
2023-01-26T06:05:23.787Z,998.26
2023-01-26T06:06:23.793Z,998.22
2023-01-26T06:07:23.768Z,998.23
2023-01-26T06:08:23.799Z,998.28
2023-01-26T06:09:26.373Z,998.28
2023-01-26T06:10:23.753Z,998.23
2023-01-26T06:11:23.740Z,998.17
2023-01-26T06:12:23.727Z,998.25
2023-01-26T06:13:23.747Z,998.21
2023-01-26T06:14:23.715Z,998.21
2023-01-26T06:15:23.712Z,998.21
2023-01-26T06:16:23.762Z,998.19
2023-01-26T06:17:23.695Z,998.19
2023-01-26T06:18:23.709Z,998.20
2023-01-26T06:19:23.681Z,998.19
2023-01-26T06:20:23.672Z,998.20
2023-01-26T06:21:23.669Z,998.16
2023-01-26T06:22:23.679Z,998.15
2023-01-26T06:23:23.687Z,998.16
2023-01-26T06:24:23.673Z,998.20
2023-01-26T06:25:23.640Z,998.24
2023-01-26T06:26:23.628Z,998.23
2023-01-26T06:27:23.621Z,998.23
2023-01-26T06:28:23.637Z,998.17
2023-01-26T06:29:23.604Z,998.21
2023-01-26T06:30:23.612Z,998.21
2023-01-26T06:31:23.677Z,998.26
2023-01-26T06:32:23.588Z,998.32
2023-01-26T06:33:23.618Z,998.29
2023-01-26T06:34:23.579Z,998.30
2023-01-26T06:35:23.560Z,998.29
2023-01-26T06:36:23.549Z,998.31
2023-01-26T06:37:23.547Z,998.29
2023-01-26T06:38:23.570Z,998.30
2023-01-26T06:39:23.536Z,998.26
2023-01-26T06:40:23.523Z,998.26
2023-01-26T06:41:23.521Z,998.28
2023-01-26T06:42:23.517Z,998.25
2023-01-26T06:43:23.530Z,998.24
2023-01-26T06:44:23.490Z,998.27
2023-01-26T06:45:23.496Z,998.26
2023-01-26T06:46:23.531Z,998.33
2023-01-26T06:47:23.470Z,998.21
2023-01-26T06:48:23.488Z,998.29
2023-01-26T06:49:23.459Z,998.17
2023-01-26T06:50:23.445Z,998.22
2023-01-26T06:51:23.437Z,998.14
2023-01-26T06:52:23.430Z,998.20
2023-01-26T06:53:23.452Z,998.18
2023-01-26T06:54:23.420Z,998.21
2023-01-26T06:55:23.405Z,998.26
2023-01-26T06:56:23.404Z,998.24
2023-01-26T06:57:23.389Z,998.26
2023-01-26T06:58:23.547Z,998.26
2023-01-26T06:59:23.377Z,998.26
2023-01-26T07:00:23.372Z,998.25
2023-01-26T07:01:23.436Z,998.32
2023-01-26T07:02:23.413Z,998.26
2023-01-26T07:03:23.370Z,998.20
2023-01-26T07:04:23.369Z,998.27
2023-01-26T07:05:23.397Z,998.23
2023-01-26T07:06:23.339Z,998.23
2023-01-26T07:07:23.330Z,998.24
2023-01-26T07:08:23.349Z,998.25
2023-01-26T07:09:23.307Z,998.30
2023-01-26T07:10:23.306Z,998.36
2023-01-26T07:11:23.301Z,998.35
2023-01-26T07:12:23.289Z,998.38
2023-01-26T07:13:23.281Z,998.33
2023-01-26T07:14:23.308Z,998.35
2023-01-26T07:15:23.266Z,998.45
2023-01-26T07:16:23.315Z,998.42
2023-01-26T07:17:23.247Z,998.37
2023-01-26T07:18:23.249Z,998.37
2023-01-26T07:19:23.259Z,998.50
2023-01-26T07:20:23.231Z,998.45
2023-01-26T07:21:23.280Z,998.50
2023-01-26T07:22:23.215Z,998.49
2023-01-26T07:23:23.208Z,998.52
2023-01-26T07:24:23.266Z,998.47
2023-01-26T07:25:23.197Z,998.44
2023-01-26T07:26:23.176Z,998.50
2023-01-26T07:27:23.177Z,998.52
2023-01-26T07:28:23.168Z,998.50
2023-01-26T07:29:23.180Z,998.50
2023-01-26T07:30:23.159Z,998.57
2023-01-26T07:31:23.230Z,998.56
2023-01-26T07:32:23.143Z,998.58
2023-01-26T07:33:23.130Z,998.58
2023-01-26T07:34:23.145Z,998.60
2023-01-26T07:35:23.111Z,998.66
2023-01-26T07:36:23.107Z,998.63
2023-01-26T07:37:23.097Z,998.58
2023-01-26T07:38:23.091Z,998.62
2023-01-26T07:39:23.116Z,998.63
2023-01-26T07:40:23.075Z,998.67
2023-01-26T07:41:23.067Z,998.60
2023-01-26T07:42:23.061Z,998.63
2023-01-26T07:43:23.077Z,998.67
2023-01-26T07:44:23.078Z,998.67
2023-01-26T07:45:23.036Z,998.66
2023-01-26T07:46:23.039Z,998.65
2023-01-26T07:47:23.021Z,998.61
2023-01-26T07:48:23.041Z,998.65
2023-01-26T07:49:23.034Z,998.73
2023-01-26T07:50:23.003Z,998.73
2023-01-26T07:51:22.991Z,998.72
2023-01-26T07:52:22.986Z,998.72
2023-01-26T07:53:23.186Z,998.80
2023-01-26T07:54:22.983Z,998.84
2023-01-26T07:55:23.956Z,998.81
2023-01-26T07:56:22.955Z,998.81
2023-01-26T07:57:22.944Z,998.81
2023-01-26T07:58:22.936Z,998.83
2023-01-26T07:59:22.960Z,998.91
2023-01-26T08:00:22.924Z,998.93
2023-01-26T08:01:23.034Z,998.84
2023-01-26T08:02:22.910Z,998.88
2023-01-26T08:03:22.899Z,998.86
2023-01-26T08:04:22.924Z,998.83
2023-01-26T08:05:22.887Z,998.87
2023-01-26T08:06:22.872Z,998.86
2023-01-26T08:07:22.864Z,998.77
2023-01-26T08:08:22.858Z,998.83
2023-01-26T08:09:22.879Z,998.91
2023-01-26T08:10:22.845Z,998.87
2023-01-26T08:11:22.841Z,998.93
2023-01-26T08:12:22.833Z,998.92
2023-01-26T08:13:34.468Z,998.94
2023-01-26T08:14:24.852Z,998.95
2023-01-26T08:15:22.828Z,999.00
2023-01-26T08:16:22.884Z,998.95
2023-01-26T08:17:22.798Z,999.01
2023-01-26T08:18:22.785Z,998.99
2023-01-26T08:19:22.811Z,999.01
2023-01-26T08:20:22.788Z,999.07
2023-01-26T08:21:22.773Z,999.02
2023-01-26T08:22:22.762Z,998.95
2023-01-26T08:23:22.755Z,998.97
2023-01-26T08:24:22.791Z,999.04
2023-01-26T08:25:22.770Z,998.95
2023-01-26T08:26:22.788Z,998.95
2023-01-26T08:27:22.721Z,998.94
2023-01-26T08:28:22.718Z,998.95
2023-01-26T08:29:22.708Z,998.96
2023-01-26T08:30:22.721Z,998.91
2023-01-26T08:31:22.870Z,998.93
2023-01-26T08:32:22.687Z,998.96
2023-01-26T08:33:22.678Z,998.96
2023-01-26T08:34:22.667Z,998.92
2023-01-26T08:35:22.685Z,998.90
2023-01-26T08:36:23.077Z,998.90
2023-01-26T08:37:22.648Z,998.85
2023-01-26T08:38:22.642Z,998.86
2023-01-26T08:39:22.628Z,998.85
2023-01-26T08:40:22.652Z,998.87
2023-01-26T08:41:22.617Z,998.94
2023-01-26T08:42:22.962Z,998.94
2023-01-26T08:43:23.601Z,998.90
2023-01-26T08:44:22.591Z,998.93
2023-01-26T08:45:22.614Z,998.90
2023-01-26T08:46:22.584Z,998.89
2023-01-26T08:47:22.574Z,998.86
2023-01-26T08:48:22.576Z,998.87
2023-01-26T08:49:22.568Z,998.85
2023-01-26T08:50:22.575Z,998.84
2023-01-26T08:51:22.545Z,998.83
2023-01-26T08:52:22.553Z,998.79
2023-01-26T08:53:22.528Z,998.91
2023-01-26T08:54:22.530Z,998.89
2023-01-26T08:55:22.541Z,998.90
2023-01-26T08:56:22.529Z,998.89
2023-01-26T08:57:22.520Z,998.91
2023-01-26T08:58:22.502Z,998.93
2023-01-26T08:59:22.489Z,998.88
2023-01-26T09:00:22.498Z,998.90
2023-01-26T09:01:22.491Z,998.87
2023-01-26T09:02:22.494Z,998.93
2023-01-26T09:03:22.506Z,998.82
2023-01-26T09:04:22.452Z,998.79
2023-01-26T09:05:22.464Z,998.85
2023-01-26T09:06:22.437Z,998.77
2023-01-26T09:07:22.431Z,998.87
2023-01-26T09:08:22.413Z,998.90
2023-01-26T09:09:22.415Z,998.92
2023-01-26T09:10:22.432Z,998.88
2023-01-26T09:11:22.391Z,998.92
2023-01-26T09:12:22.392Z,998.88
2023-01-26T09:13:22.383Z,998.82
2023-01-26T09:14:22.370Z,998.89
2023-01-26T09:15:22.390Z,998.86
2023-01-26T09:16:22.393Z,998.87
2023-01-26T09:17:22.355Z,998.83
2023-01-26T09:18:22.360Z,998.86
2023-01-26T09:19:22.323Z,998.91
2023-01-26T09:20:23.433Z,998.94
2023-01-26T09:21:22.319Z,998.93
2023-01-26T09:22:22.314Z,998.86
2023-01-26T09:23:22.303Z,998.82
2023-01-26T09:24:22.357Z,998.86
2023-01-26T09:25:22.323Z,998.76
2023-01-26T09:26:22.289Z,998.78
2023-01-26T09:27:22.276Z,998.84
2023-01-26T09:28:22.269Z,998.77
2023-01-26T09:29:22.260Z,998.79
2023-01-26T09:30:22.280Z,998.74
2023-01-26T09:31:22.330Z,998.83
2023-01-26T09:32:22.246Z,998.82
2023-01-26T09:33:22.233Z,998.85
2023-01-26T09:34:22.220Z,998.89
2023-01-26T09:35:22.211Z,998.88
2023-01-26T09:36:22.236Z,998.86
2023-01-26T09:37:22.199Z,998.91
2023-01-26T09:38:22.192Z,998.82
2023-01-26T09:39:22.196Z,998.83
2023-01-26T09:40:22.253Z,998.80
2023-01-26T09:41:23.190Z,998.84
2023-01-26T09:42:22.162Z,998.86
2023-01-26T09:43:22.160Z,998.82
2023-01-26T09:44:22.161Z,998.80
2023-01-26T09:45:22.182Z,998.82
2023-01-26T09:46:22.206Z,998.81
2023-01-26T09:47:22.148Z,998.81
2023-01-26T09:48:25.189Z,998.85
2023-01-26T09:49:22.119Z,998.82
2023-01-26T09:50:22.104Z,998.91
2023-01-26T09:51:22.137Z,998.91
2023-01-26T09:52:22.092Z,998.98
2023-01-26T09:53:22.077Z,998.91
2023-01-26T09:54:22.086Z,998.95
2023-01-26T09:55:22.075Z,998.92
2023-01-26T09:56:22.112Z,998.96
2023-01-26T09:57:22.055Z,998.90
2023-01-26T09:58:22.049Z,998.89
2023-01-26T09:59:22.040Z,998.95
2023-01-26T10:00:22.037Z,998.79
2023-01-26T10:01:22.133Z,998.82
2023-01-26T10:02:22.083Z,998.90
2023-01-26T10:03:22.032Z,998.83
2023-01-26T10:04:22.006Z,998.89
2023-01-26T10:05:22.010Z,998.88
2023-01-26T10:06:22.004Z,998.81
2023-01-26T10:07:21.993Z,998.82
2023-01-26T10:08:21.977Z,998.78
2023-01-26T10:09:21.976Z,998.76
2023-01-26T10:10:21.955Z,998.82
2023-01-26T10:11:21.994Z,998.85
2023-01-26T10:12:21.940Z,998.82
2023-01-26T10:13:21.933Z,998.77
2023-01-26T10:14:21.924Z,998.77
2023-01-26T10:15:21.927Z,998.79
2023-01-26T10:16:21.936Z,998.74
2023-01-26T10:17:21.906Z,998.64
2023-01-26T10:18:21.899Z,998.68
2023-01-26T10:19:21.913Z,998.68
2023-01-26T10:20:21.883Z,998.68
2023-01-26T10:21:21.910Z,998.66
2023-01-26T10:22:21.873Z,998.59
2023-01-26T10:23:21.945Z,998.63
2023-01-26T10:24:21.962Z,998.68
2023-01-26T10:25:22.910Z,998.67
2023-01-26T10:26:21.864Z,998.63
2023-01-26T10:27:21.829Z,998.58
2023-01-26T10:28:21.818Z,998.58
2023-01-26T10:29:21.839Z,998.60
2023-01-26T10:30:21.849Z,998.63
2023-01-26T10:31:21.891Z,998.52
2023-01-26T10:32:22.799Z,998.58
2023-01-26T10:33:21.797Z,998.57
2023-01-26T10:34:21.779Z,998.48
2023-01-26T10:35:21.776Z,998.45
2023-01-26T10:36:21.809Z,998.44
2023-01-26T10:37:21.772Z,998.41
2023-01-26T10:38:21.749Z,998.37
2023-01-26T10:39:21.745Z,998.35
2023-01-26T10:40:21.805Z,998.35
2023-01-26T10:41:21.753Z,998.38
2023-01-26T10:42:21.717Z,998.34
2023-01-26T10:43:21.717Z,998.33
2023-01-26T10:44:21.711Z,998.33
2023-01-26T10:45:21.697Z,998.38
2023-01-26T10:46:21.738Z,998.31
2023-01-26T10:47:21.692Z,998.36
2023-01-26T10:48:21.671Z,998.29
2023-01-26T10:49:21.664Z,998.30
2023-01-26T10:50:21.685Z,998.25
2023-01-26T10:51:21.683Z,998.31
2023-01-26T10:52:21.727Z,998.28
2023-01-26T10:53:21.643Z,998.28
2023-01-26T10:54:21.641Z,998.30
2023-01-26T10:55:21.614Z,998.25
2023-01-26T10:56:21.614Z,998.28
2023-01-26T10:57:21.638Z,998.30
2023-01-26T10:58:21.596Z,998.20
2023-01-26T10:59:21.597Z,998.27
2023-01-26T11:00:21.587Z,998.27
2023-01-26T11:01:21.622Z,998.26
2023-01-26T11:02:21.602Z,998.25
2023-01-26T11:03:21.570Z,998.21
2023-01-26T11:04:21.564Z,998.18
2023-01-26T11:05:21.560Z,998.25
2023-01-26T11:06:21.547Z,998.22
2023-01-26T11:07:21.559Z,998.28
2023-01-26T11:08:21.537Z,998.13
2023-01-26T11:09:21.528Z,998.20
2023-01-26T11:10:21.512Z,998.18
2023-01-26T11:11:21.504Z,998.14
2023-01-26T11:12:21.525Z,998.14
2023-01-26T11:13:21.497Z,998.12
2023-01-26T11:14:21.488Z,998.19
2023-01-26T11:15:21.474Z,998.14
2023-01-26T11:16:21.558Z,998.14
2023-01-26T11:17:21.497Z,998.14
2023-01-26T11:18:21.450Z,998.13
2023-01-26T11:19:21.453Z,998.10
2023-01-26T11:20:21.438Z,998.17
2023-01-26T11:21:21.431Z,998.07
2023-01-26T11:22:21.465Z,998.11
2023-01-26T11:23:21.416Z,998.08
2023-01-26T11:24:21.538Z,998.06
2023-01-26T11:25:21.409Z,997.99
2023-01-26T11:26:21.403Z,998.01
2023-01-26T11:27:21.411Z,997.97
2023-01-26T11:28:21.380Z,998.09
2023-01-26T11:29:21.545Z,998.02
2023-01-26T11:30:21.364Z,998.01
2023-01-26T11:31:21.386Z,998.04
2023-01-26T11:32:21.367Z,998.04
2023-01-26T11:33:21.336Z,998.07
2023-01-26T11:34:21.334Z,998.07
2023-01-26T11:35:21.323Z,998.04
2023-01-26T11:36:21.317Z,998.05
2023-01-26T11:37:21.329Z,998.00
2023-01-26T11:38:21.307Z,997.90
2023-01-26T11:39:21.292Z,997.90
2023-01-26T11:40:21.280Z,997.92
2023-01-26T11:41:21.280Z,997.85
2023-01-26T11:42:21.300Z,997.87
2023-01-26T11:43:21.266Z,997.89
2023-01-26T11:44:21.251Z,997.84
2023-01-26T11:45:21.325Z,997.84
2023-01-26T11:46:21.247Z,997.85
2023-01-26T11:47:21.260Z,997.79
2023-01-26T11:48:21.223Z,997.82
2023-01-26T11:49:21.221Z,997.77
2023-01-26T11:50:21.207Z,997.79
2023-01-26T11:51:21.199Z,997.73
2023-01-26T11:52:21.216Z,997.78
2023-01-26T11:53:21.183Z,997.74
2023-01-26T11:54:21.176Z,997.77
2023-01-26T11:55:21.166Z,997.79
2023-01-26T11:56:21.164Z,997.74
2023-01-26T11:57:21.183Z,997.70
2023-01-26T11:58:21.152Z,997.68
2023-01-26T11:59:21.139Z,997.68
2023-01-26T12:00:30.017Z,997.66
2023-01-26T12:01:23.125Z,997.67
2023-01-26T12:02:21.224Z,997.67
2023-01-26T12:03:21.141Z,997.64
2023-01-26T12:04:21.132Z,997.65
2023-01-26T12:05:21.096Z,997.66
2023-01-26T12:06:21.088Z,997.63
2023-01-26T12:07:21.102Z,997.68
2023-01-26T12:08:21.081Z,997.68
2023-01-26T12:09:21.068Z,997.60
2023-01-26T12:10:21.066Z,997.66
2023-01-26T12:11:21.048Z,997.69
2023-01-26T12:12:21.071Z,997.59
2023-01-26T12:13:21.047Z,997.66
2023-01-26T12:14:21.025Z,997.59
2023-01-26T12:15:21.023Z,997.61
2023-01-26T12:16:21.023Z,997.61
2023-01-26T12:17:21.063Z,997.52
2023-01-26T12:18:21.000Z,997.50
2023-01-26T12:19:21.033Z,997.51
2023-01-26T12:20:21.452Z,997.50
2023-01-26T12:21:21.973Z,997.50
2023-01-26T12:22:21.013Z,997.47
2023-01-26T12:23:20.963Z,997.42
2023-01-26T12:24:48.465Z,997.38
2023-01-26T12:25:22.949Z,997.34
2023-01-26T12:26:20.953Z,997.34
2023-01-26T12:27:20.957Z,997.31
2023-01-26T12:28:20.924Z,997.31